sensor_id;sensor_type;location;lat;lon;timestamp;pressure;altitude;pressure_sealevel;temperature;humidity
39223;BME280;24936;46.328;11.026;2022-09-09T00:02:24;94218.75;;;15.91;100.00
39223;BME280;24936;46.328;11.026;2022-09-09T00:07:25;94222.50;;;15.84;100.00
39223;BME280;24936;46.328;11.026;2022-09-09T00:15:21;94219.00;;;15.58;100.00
39223;BME280;24936;46.328;11.026;2022-09-09T00:18:14;94224.13;;;15.43;100.00
39223;BME280;24936;46.328;11.026;2022-09-09T00:21:06;94221.69;;;15.45;100.00
39223;BME280;24936;46.328;11.026;2022-09-09T00:23:40;94211.47;;;15.75;100.00
39223;BME280;24936;46.328;11.026;2022-09-09T00:26:13;94206.44;;;15.86;100.00
39223;BME280;24936;46.328;11.026;2022-09-09T00:28:55;94206.22;;;15.80;100.00
39223;BME280;24936;46.328;11.026;2022-09-09T00:31:28;94206.13;;;15.71;100.00
39223;BME280;24936;46.328;11.026;2022-09-09T00:33:55;94199.03;;;15.74;100.00
39223;BME280;24936;46.328;11.026;2022-09-09T00:36:25;94193.91;;;15.76;100.00
39223;BME280;24936;46.328;11.026;2022-09-09T00:38:59;94191.06;;;15.67;100.00
39223;BME280;24936;46.328;11.026;2022-09-09T00:42:03;94200.78;;;15.42;100.00
39223;BME280;24936;46.328;11.026;2022-09-09T00:44:36;94200.56;;;15.36;100.00
39223;BME280;24936;46.328;11.026;2022-09-09T00:47:37;94202.63;;;15.32;100.00
39223;BME280;24936;46.328;11.026;2022-09-09T00:56:21;94211.69;;;15.42;100.00
39223;BME280;24936;46.328;11.026;2022-09-09T00:59:16;94212.22;;;15.50;100.00
39223;BME280;24936;46.328;11.026;2022-09-09T01:01:44;94210.47;;;15.43;100.00
39223;BME280;24936;46.328;11.026;2022-09-09T01:04:14;94206.66;;;15.41;100.00
39223;BME280;24936;46.328;11.026;2022-09-09T01:06:43;94214.41;;;15.55;100.00
39223;BME280;24936;46.328;11.026;2022-09-09T01:09:36;94218.22;;;15.57;100.00
39223;BME280;24936;46.328;11.026;2022-09-09T01:12:12;94224.22;;;15.52;100.00
39223;BME280;24936;46.328;11.026;2022-09-09T01:14:45;94222.69;;;15.51;100.00
39223;BME280;24936;46.328;11.026;2022-09-09T01:17:22;94220.28;;;15.41;100.00
39223;BME280;24936;46.328;11.026;2022-09-09T01:20:23;94211.25;;;15.44;100.00
39223;BME280;24936;46.328;11.026;2022-09-09T01:28:25;94219.09;;;15.16;100.00
39223;BME280;24936;46.328;11.026;2022-09-09T01:30:53;94220.81;;;15.10;100.00
39223;BME280;24936;46.328;11.026;2022-09-09T01:33:20;94217.53;;;15.02;100.00
39223;BME280;24936;46.328;11.026;2022-09-09T01:38:17;94219.84;;;15.17;100.00
39223;BME280;24936;46.328;11.026;2022-09-09T01:40:43;94215.06;;;15.21;100.00
39223;BME280;24936;46.328;11.026;2022-09-09T01:43:09;94213.97;;;15.31;100.00
39223;BME280;24936;46.328;11.026;2022-09-09T01:45:35;94216.03;;;15.52;100.00
39223;BME280;24936;46.328;11.026;2022-09-09T01:48:01;94206.56;;;15.57;100.00
39223;BME280;24936;46.328;11.026;2022-09-09T01:50:28;94194.88;;;15.56;100.00
39223;BME280;24936;46.328;11.026;2022-09-09T01:52:56;94198.69;;;15.59;100.00
39223;BME280;24936;46.328;11.026;2022-09-09T01:55:31;94196.53;;;15.67;100.00
39223;BME280;24936;46.328;11.026;2022-09-09T02:01:04;94218.31;;;15.41;100.00
39223;BME280;24936;46.328;11.026;2022-09-09T02:03:32;94223.13;;;15.37;100.00
39223;BME280;24936;46.328;11.026;2022-09-09T02:06:14;94217.66;;;15.37;100.00
39223;BME280;24936;46.328;11.026;2022-09-09T02:08:48;94214.84;;;15.41;100.00
39223;BME280;24936;46.328;11.026;2022-09-09T02:11:17;94218.66;;;15.56;100.00
39223;BME280;24936;46.328;11.026;2022-09-09T02:13:45;94214.41;;;15.68;100.00
39223;BME280;24936;46.328;11.026;2022-09-09T02:16:21;94222.69;;;15.51;100.00
39223;BME280;24936;46.328;11.026;2022-09-09T02:19:11;94216.25;;;15.32;100.00
39223;BME280;24936;46.328;11.026;2022-09-09T02:21:41;94212.56;;;15.26;100.00
39223;BME280;24936;46.328;11.026;2022-09-09T02:24:08;94209.50;;;15.37;100.00
39223;BME280;24936;46.328;11.026;2022-09-09T02:26:39;94205.47;;;15.54;100.00
39223;BME280;24936;46.328;11.026;2022-09-09T02:29:09;94214.00;;;15.69;100.00
39223;BME280;24936;46.328;11.026;2022-09-09T02:31:38;94214.50;;;15.64;100.00
39223;BME280;24936;46.328;11.026;2022-09-09T02:34:05;94209.94;;;15.74;100.00
39223;BME280;24936;46.328;11.026;2022-09-09T02:36:35;94204.03;;;15.75;100.00
39223;BME280;24936;46.328;11.026;2022-09-09T02:39:02;94201.22;;;15.66;100.00
39223;BME280;24936;46.328;11.026;2022-09-09T02:41:37;94200.78;;;15.55;100.00
39223;BME280;24936;46.328;11.026;2022-09-09T02:44:08;94204.25;;;15.55;100.00
39223;BME280;24936;46.328;11.026;2022-09-09T02:52:40;94211.94;;;14.80;100.00
39223;BME280;24936;46.328;11.026;2022-09-09T02:55:27;94215.19;;;14.75;100.00
39223;BME280;24936;46.328;11.026;2022-09-09T02:57:57;94203.59;;;15.00;100.00
39223;BME280;24936;46.328;11.026;2022-09-09T03:00:27;94209.81;;;15.01;100.00
39223;BME280;24936;46.328;11.026;2022-09-09T03:02:53;94211.50;;;14.82;100.00
39223;BME280;24936;46.328;11.026;2022-09-09T03:05:20;94202.91;;;14.83;100.00
39223;BME280;24936;46.328;11.026;2022-09-09T03:07:45;94204.66;;;14.77;100.00
39223;BME280;24936;46.328;11.026;2022-09-09T03:10:11;94193.84;;;14.74;100.00
39223;BME280;24936;46.328;11.026;2022-09-09T03:12:36;94201.31;;;14.57;100.00
39223;BME280;24936;46.328;11.026;2022-09-09T03:15:02;94201.66;;;14.59;100.00
39223;BME280;24936;46.328;11.026;2022-09-09T03:17:28;94194.50;;;14.78;100.00
39223;BME280;24936;46.328;11.026;2022-09-09T03:19:53;94188.41;;;14.74;100.00
39223;BME280;24936;46.328;11.026;2022-09-09T03:22:20;94187.84;;;14.66;100.00
39223;BME280;24936;46.328;11.026;2022-09-09T03:24:46;94191.25;;;14.83;100.00
39223;BME280;24936;46.328;11.026;2022-09-09T03:27:12;94182.88;;;14.90;100.00
39223;BME280;24936;46.328;11.026;2022-09-09T03:29:39;94181.34;;;14.89;100.00
39223;BME280;24936;46.328;11.026;2022-09-09T03:32:05;94182.00;;;14.93;100.00
39223;BME280;24936;46.328;11.026;2022-09-09T03:34:30;94171.97;;;14.77;100.00
39223;BME280;24936;46.328;11.026;2022-09-09T03:36:56;94167.56;;;14.67;100.00
39223;BME280;24936;46.328;11.026;2022-09-09T03:39:22;94169.19;;;14.65;100.00
39223;BME280;24936;46.328;11.026;2022-09-09T03:41:47;94168.97;;;14.59;100.00
39223;BME280;24936;46.328;11.026;2022-09-09T03:44:14;94174.97;;;14.54;100.00
39223;BME280;24936;46.328;11.026;2022-09-09T03:46:39;94164.41;;;14.69;100.00
39223;BME280;24936;46.328;11.026;2022-09-09T03:49:04;94162.94;;;14.93;100.00
39223;BME280;24936;46.328;11.026;2022-09-09T03:51:30;94158.78;;;14.89;100.00
39223;BME280;24936;46.328;11.026;2022-09-09T03:53:55;94165.88;;;14.99;100.00
39223;BME280;24936;46.328;11.026;2022-09-09T03:56:23;94165.00;;;15.02;100.00
39223;BME280;24936;46.328;11.026;2022-09-09T03:58:48;94175.50;;;15.03;100.00
39223;BME280;24936;46.328;11.026;2022-09-09T04:01:14;94168.28;;;15.09;100.00
39223;BME280;24936;46.328;11.026;2022-09-09T04:03:41;94156.84;;;15.02;100.00
39223;BME280;24936;46.328;11.026;2022-09-09T04:06:13;94146.59;;;15.06;100.00
39223;BME280;24936;46.328;11.026;2022-09-09T04:08:39;94142.66;;;15.07;100.00
39223;BME280;24936;46.328;11.026;2022-09-09T04:11:05;94137.34;;;15.16;100.00
39223;BME280;24936;46.328;11.026;2022-09-09T04:13:31;94139.94;;;14.94;100.00
39223;BME280;24936;46.328;11.026;2022-09-09T04:15:59;94145.38;;;14.81;100.00
39223;BME280;24936;46.328;11.026;2022-09-09T04:18:25;94141.91;;;14.94;100.00
39223;BME280;24936;46.328;11.026;2022-09-09T04:20:52;94146.28;;;15.04;100.00
39223;BME280;24936;46.328;11.026;2022-09-09T04:23:18;94149.22;;;15.09;100.00
39223;BME280;24936;46.328;11.026;2022-09-09T04:25:46;94163.44;;;14.88;100.00
39223;BME280;24936;46.328;11.026;2022-09-09T04:28:13;94158.25;;;14.81;100.00
39223;BME280;24936;46.328;11.026;2022-09-09T04:30:39;94156.91;;;14.73;100.00
39223;BME280;24936;46.328;11.026;2022-09-09T04:33:05;94156.47;;;14.61;100.00
39223;BME280;24936;46.328;11.026;2022-09-09T04:35:31;94158.19;;;14.68;100.00
39223;BME280;24936;46.328;11.026;2022-09-09T04:37:56;94155.94;;;14.79;100.00
39223;BME280;24936;46.328;11.026;2022-09-09T04:40:22;94160.97;;;14.81;100.00
39223;BME280;24936;46.328;11.026;2022-09-09T04:42:47;94159.66;;;14.98;100.00
39223;BME280;24936;46.328;11.026;2022-09-09T04:45:13;94159.56;;;15.02;100.00
39223;BME280;24936;46.328;11.026;2022-09-09T04:47:39;94165.88;;;14.99;100.00
39223;BME280;24936;46.328;11.026;2022-09-09T04:50:04;94164.34;;;14.85;100.00
39223;BME280;24936;46.328;11.026;2022-09-09T04:52:30;94164.66;;;14.87;100.00
39223;BME280;24936;46.328;11.026;2022-09-09T04:54:55;94158.78;;;14.89;100.00
39223;BME280;24936;46.328;11.026;2022-09-09T04:57:21;94160.53;;;14.95;100.00
39223;BME280;24936;46.328;11.026;2022-09-09T04:59:46;94151.91;;;15.22;100.00
39223;BME280;24936;46.328;11.026;2022-09-09T05:02:12;94145.94;;;15.27;100.00
39223;BME280;24936;46.328;11.026;2022-09-09T05:04:37;94154.31;;;15.46;100.00
39223;BME280;24936;46.328;11.026;2022-09-09T05:07:02;94158.88;;;15.49;100.00
39223;BME280;24936;46.328;11.026;2022-09-09T05:09:28;94165.13;;;15.36;100.00
39223;BME280;24936;46.328;11.026;2022-09-09T05:11:54;94173.19;;;15.27;100.00
39223;BME280;24936;46.328;11.026;2022-09-09T05:14:20;94172.00;;;15.16;100.00
39223;BME280;24936;46.328;11.026;2022-09-09T05:16:45;94188.13;;;15.10;100.00
39223;BME280;24936;46.328;11.026;2022-09-09T05:19:12;94177.41;;;15.03;100.00
39223;BME280;24936;46.328;11.026;2022-09-09T05:21:37;94174.06;;;15.11;100.00
39223;BME280;24936;46.328;11.026;2022-09-09T05:24:03;94177.97;;;15.36;100.00
39223;BME280;24936;46.328;11.026;2022-09-09T05:26:28;94175.78;;;15.18;100.00
39223;BME280;24936;46.328;11.026;2022-09-09T05:28:57;94177.44;;;15.16;100.00
39223;BME280;24936;46.328;11.026;2022-09-09T05:31:24;94184.22;;;15.11;100.00
39223;BME280;24936;46.328;11.026;2022-09-09T05:33:53;94185.53;;;15.19;100.00
39223;BME280;24936;46.328;11.026;2022-09-09T05:36:20;94181.69;;;15.42;100.00
39223;BME280;24936;46.328;11.026;2022-09-09T05:38:46;94180.25;;;15.38;100.00
39223;BME280;24936;46.328;11.026;2022-09-09T05:41:12;94191.16;;;15.38;100.00
39223;BME280;24936;46.328;11.026;2022-09-09T05:43:38;94181.47;;;15.24;100.00
39223;BME280;24936;46.328;11.026;2022-09-09T05:46:04;94177.53;;;15.25;100.00
39223;BME280;24936;46.328;11.026;2022-09-09T05:48:32;94190.53;;;15.21;100.00
39223;BME280;24936;46.328;11.026;2022-09-09T05:50:58;94201.13;;;15.19;100.00
39223;BME280;24936;46.328;11.026;2022-09-09T05:53:25;94193.56;;;15.10;100.00
39223;BME280;24936;46.328;11.026;2022-09-09T05:56:01;94189.13;;;15.16;100.00
39223;BME280;24936;46.328;11.026;2022-09-09T05:58:31;94182.25;;;15.24;100.00
39223;BME280;24936;46.328;11.026;2022-09-09T06:01:11;94183.09;;;15.21;100.00
39223;BME280;24936;46.328;11.026;2022-09-09T06:03:38;94191.69;;;15.07;100.00
39223;BME280;24936;46.328;11.026;2022-09-09T06:06:06;94187.47;;;15.06;100.00
39223;BME280;24936;46.328;11.026;2022-09-09T06:08:34;94192.25;;;15.02;100.00
39223;BME280;24936;46.328;11.026;2022-09-09T06:11:10;94194.13;;;15.05;100.00
39223;BME280;24936;46.328;11.026;2022-09-09T06:13:36;94181.47;;;15.24;100.00
39223;BME280;24936;46.328;11.026;2022-09-09T06:16:04;94186.50;;;15.25;100.00
39223;BME280;24936;46.328;11.026;2022-09-09T06:18:30;94185.53;;;15.19;100.00
39223;BME280;24936;46.328;11.026;2022-09-09T06:21:00;94182.78;;;15.06;100.00
39223;BME280;24936;46.328;11.026;2022-09-09T06:23:27;94182.97;;;14.99;100.00
39223;BME280;24936;46.328;11.026;2022-09-09T06:26:16;94176.66;;;14.90;100.00
39223;BME280;24936;46.328;11.026;2022-09-09T06:28:43;94186.25;;;14.94;100.00
39223;BME280;24936;46.328;11.026;2022-09-09T06:31:09;94178.53;;;15.05;100.00
39223;BME280;24936;46.328;11.026;2022-09-09T06:33:37;94175.13;;;15.14;100.00
39223;BME280;24936;46.328;11.026;2022-09-09T06:36:07;94178.63;;;15.02;100.00
39223;BME280;24936;46.328;11.026;2022-09-09T06:38:32;94178.41;;;14.96;100.00
39223;BME280;24936;46.328;11.026;2022-09-09T06:40:59;94184.06;;;14.89;100.00
39223;BME280;24936;46.328;11.026;2022-09-09T06:43:25;94185.53;;;15.19;100.00
39223;BME280;24936;46.328;11.026;2022-09-09T06:48:19;94196.94;;;14.89;100.00
39223;BME280;24936;46.328;11.026;2022-09-09T06:50:45;94187.31;;;14.84;100.00
39223;BME280;24936;46.328;11.026;2022-09-09T06:53:11;94185.88;;;14.67;100.00
39223;BME280;24936;46.328;11.026;2022-09-09T06:55:36;94189.16;;;14.61;100.00
39223;BME280;24936;46.328;11.026;2022-09-09T06:58:01;94209.81;;;14.59;100.00
39223;BME280;24936;46.328;11.026;2022-09-09T07:00:27;94200.59;;;14.69;100.00
39223;BME280;24936;46.328;11.026;2022-09-09T07:02:53;94207.22;;;14.68;100.00
39223;BME280;24936;46.328;11.026;2022-09-09T07:05:19;94226.69;;;14.54;100.00
39223;BME280;24936;46.328;11.026;2022-09-09T07:07:44;94217.22;;;14.42;100.00
39223;BME280;24936;46.328;11.026;2022-09-09T07:10:10;94211.47;;;14.40;100.00
39223;BME280;24936;46.328;11.026;2022-09-09T07:12:35;94199.63;;;14.47;100.00
39223;BME280;24936;46.328;11.026;2022-09-09T07:15:00;94200.13;;;14.42;100.00
39223;BME280;24936;46.328;11.026;2022-09-09T07:17:27;94228.66;;;14.37;100.00
39223;BME280;24936;46.328;11.026;2022-09-09T07:19:53;94241.88;;;14.22;100.00
39223;BME280;24936;46.328;11.026;2022-09-09T07:22:18;94260.94;;;14.06;100.00
39223;BME280;24936;46.328;11.026;2022-09-09T07:24:45;94274.44;;;14.09;100.00
39223;BME280;24936;46.328;11.026;2022-09-09T07:27:10;94264.91;;;14.18;100.00
39223;BME280;24936;46.328;11.026;2022-09-09T07:29:36;94272.72;;;14.15;100.00
39223;BME280;24936;46.328;11.026;2022-09-09T07:32:01;94269.34;;;13.79;100.00
39223;BME280;24936;46.328;11.026;2022-09-09T07:34:27;94251.94;;;13.60;100.00
39223;BME280;24936;46.328;11.026;2022-09-09T07:36:53;94273.22;;;13.45;100.00
39223;BME280;24936;46.328;11.026;2022-09-09T07:39:18;94270.41;;;13.32;100.00
39223;BME280;24936;46.328;11.026;2022-09-09T07:41:46;94265.81;;;13.29;100.00
39223;BME280;24936;46.328;11.026;2022-09-09T07:44:14;94248.41;;;13.43;100.00
39223;BME280;24936;46.328;11.026;2022-09-09T07:46:40;94229.81;;;13.25;100.00
39223;BME280;24936;46.328;11.026;2022-09-09T07:49:06;94224.50;;;13.18;100.00
39223;BME280;24936;46.328;11.026;2022-09-09T07:51:34;94218.09;;;13.28;100.00
39223;BME280;24936;46.328;11.026;2022-09-09T07:54:05;94215.38;;;13.28;100.00
39223;BME280;24936;46.328;11.026;2022-09-09T07:56:31;94211.88;;;13.28;100.00
39223;BME280;24936;46.328;11.026;2022-09-09T07:58:58;94184.28;;;13.29;100.00
39223;BME280;24936;46.328;11.026;2022-09-09T08:01:30;94188.44;;;13.34;100.00
39223;BME280;24936;46.328;11.026;2022-09-09T08:04:01;94209.28;;;13.57;100.00
39223;BME280;24936;46.328;11.026;2022-09-09T08:06:29;94244.88;;;13.79;100.00
39223;BME280;24936;46.328;11.026;2022-09-09T08:08:55;94267.75;;;13.98;100.00
39223;BME280;24936;46.328;11.026;2022-09-09T08:11:25;94250.38;;;14.08;100.00
39223;BME280;24936;46.328;11.026;2022-09-09T08:13:51;94266.88;;;14.17;100.00
39223;BME280;24936;46.328;11.026;2022-09-09T08:16:19;94269.91;;;14.19;100.00
39223;BME280;24936;46.328;11.026;2022-09-09T08:18:49;94272.06;;;14.28;100.00
39223;BME280;24936;46.328;11.026;2022-09-09T08:21:37;94274.88;;;14.24;100.00
39223;BME280;24936;46.328;11.026;2022-09-09T08:24:04;94279.69;;;14.33;100.00
39223;BME280;24936;46.328;11.026;2022-09-09T08:26:43;94285.63;;;14.44;100.00
39223;BME280;24936;46.328;11.026;2022-09-09T08:29:10;94292.34;;;14.56;100.00
39223;BME280;24936;46.328;11.026;2022-09-09T08:31:42;94298.91;;;14.58;100.00
39223;BME280;24936;46.328;11.026;2022-09-09T08:34:08;94298.47;;;14.60;100.00
39223;BME280;24936;46.328;11.026;2022-09-09T08:36:38;94307.56;;;14.70;100.00
39223;BME280;24936;46.328;11.026;2022-09-09T08:39:05;94291.63;;;14.84;100.00
39223;BME280;24936;46.328;11.026;2022-09-09T08:58:23;94265.97;;;18.84;100.00
39223;BME280;24936;46.328;11.026;2022-09-09T09:06:05;94259.72;;;19.02;100.00
39223;BME280;24936;46.328;11.026;2022-09-09T09:10:57;94273.34;;;18.10;100.00
39223;BME280;24936;46.328;11.026;2022-09-09T09:13:45;94279.97;;;17.91;100.00
39223;BME280;24936;46.328;11.026;2022-09-09T09:18:47;94287.13;;;17.35;100.00
39223;BME280;24936;46.328;11.026;2022-09-09T09:23:58;94282.66;;;16.97;100.00
39223;BME280;24936;46.328;11.026;2022-09-09T09:26:30;94284.13;;;16.89;100.00
39223;BME280;24936;46.328;11.026;2022-09-09T09:28:58;94283.22;;;17.36;100.00
39223;BME280;24936;46.328;11.026;2022-09-09T09:31:24;94290.16;;;17.06;100.00
39223;BME280;24936;46.328;11.026;2022-09-09T09:33:55;94287.03;;;17.17;100.00
39223;BME280;24936;46.328;11.026;2022-09-09T09:36:25;94287.84;;;17.48;100.00
39223;BME280;24936;46.328;11.026;2022-09-09T09:38:59;94288.94;;;17.91;100.00
39223;BME280;24936;46.328;11.026;2022-09-09T09:43:55;94289.03;;;18.19;100.00
39223;BME280;24936;46.328;11.026;2022-09-09T09:46:21;94278.91;;;18.56;100.00
39223;BME280;24936;46.328;11.026;2022-09-09T09:49:01;94277.78;;;18.26;100.00
39223;BME280;24936;46.328;11.026;2022-09-09T09:51:29;94270.94;;;18.21;100.00
39223;BME280;24936;46.328;11.026;2022-09-09T09:54:07;94278.88;;;18.29;100.00
39223;BME280;24936;46.328;11.026;2022-09-09T09:56:35;94279.16;;;18.21;100.00
39223;BME280;24936;46.328;11.026;2022-09-09T09:59:00;94274.91;;;18.20;100.00
39223;BME280;24936;46.328;11.026;2022-09-09T10:01:31;94272.03;;;18.42;100.00
39223;BME280;24936;46.328;11.026;2022-09-09T10:04:22;94266.47;;;17.65;100.00
39223;BME280;24936;46.328;11.026;2022-09-09T10:06:49;94255.16;;;17.45;100.00
39223;BME280;24936;46.328;11.026;2022-09-09T10:14:18;94246.72;;;18.01;100.00
39223;BME280;24936;46.328;11.026;2022-09-09T10:19:36;94232.84;;;17.87;100.00
39223;BME280;24936;46.328;11.026;2022-09-09T10:28:21;94224.88;;;18.47;100.00
39223;BME280;24936;46.328;11.026;2022-09-09T10:36:16;94200.63;;;18.92;100.00
39223;BME280;24936;46.328;11.026;2022-09-09T10:38:52;94183.25;;;19.89;100.00
39223;BME280;24936;46.328;11.026;2022-09-09T10:44:18;94160.81;;;23.57;100.00
39223;BME280;24936;46.328;11.026;2022-09-09T10:55:41;94159.34;;;26.39;100.00
39223;BME280;24936;46.328;11.026;2022-09-09T10:58:12;94165.41;;;26.32;100.00
39223;BME280;24936;46.328;11.026;2022-09-09T11:00:50;94166.88;;;24.47;100.00
39223;BME280;24936;46.328;11.026;2022-09-09T11:03:25;94167.06;;;23.21;100.00
39223;BME280;24936;46.328;11.026;2022-09-09T11:05:54;94161.69;;;24.77;100.00
39223;BME280;24936;46.328;11.026;2022-09-09T11:08:26;94161.50;;;25.93;100.00
39223;BME280;24936;46.328;11.026;2022-09-09T11:19:34;94155.41;;;26.12;100.00
39223;BME280;24936;46.328;11.026;2022-09-09T11:22:02;94151.41;;;25.00;100.00
39223;BME280;24936;46.328;11.026;2022-09-09T11:24:37;94155.28;;;22.94;100.00
39223;BME280;24936;46.328;11.026;2022-09-09T11:41:05;94156.84;;;20.15;100.00
39223;BME280;24936;46.328;11.026;2022-09-09T11:46:03;94151.09;;;23.04;100.00
39223;BME280;24936;46.328;11.026;2022-09-09T11:48:33;94142.44;;;23.17;100.00
39223;BME280;24936;46.328;11.026;2022-09-09T11:53:30;94130.13;;;23.87;100.00
39223;BME280;24936;46.328;11.026;2022-09-09T11:56:07;94133.81;;;24.21;100.00
39223;BME280;24936;46.328;11.026;2022-09-09T11:58:54;94134.41;;;23.88;100.00
39223;BME280;24936;46.328;11.026;2022-09-09T12:01:37;94123.88;;;23.92;100.00
39223;BME280;24936;46.328;11.026;2022-09-09T12:06:51;94119.91;;;24.64;100.00
39223;BME280;24936;46.328;11.026;2022-09-09T12:14:42;94106.91;;;25.26;100.00
39223;BME280;24936;46.328;11.026;2022-09-09T12:17:24;94104.41;;;25.12;100.00
39223;BME280;24936;46.328;11.026;2022-09-09T12:20:13;94094.06;;;25.35;100.00
39223;BME280;24936;46.328;11.026;2022-09-09T12:33:34;94075.94;;;25.39;100.00
39223;BME280;24936;46.328;11.026;2022-09-09T12:36:00;94075.53;;;26.05;100.00
39223;BME280;24936;46.328;11.026;2022-09-09T12:38:32;94070.34;;;25.62;100.00
39223;BME280;24936;46.328;11.026;2022-09-09T12:40:59;94066.72;;;26.00;100.00
39223;BME280;24936;46.328;11.026;2022-09-09T12:43:27;94066.88;;;24.99;100.00
39223;BME280;24936;46.328;11.026;2022-09-09T12:45:59;94067.13;;;25.29;100.00
39223;BME280;24936;46.328;11.026;2022-09-09T12:48:33;94072.91;;;25.26;100.00
39223;BME280;24936;46.328;11.026;2022-09-09T12:51:01;94055.53;;;25.37;100.00
39223;BME280;24936;46.328;11.026;2022-09-09T12:53:34;94054.03;;;24.91;100.00
39223;BME280;24936;46.328;11.026;2022-09-09T12:56:08;94056.53;;;24.83;100.00
39223;BME280;24936;46.328;11.026;2022-09-09T13:01:37;94037.69;;;25.38;100.00
39223;BME280;24936;46.328;11.026;2022-09-09T13:04:20;94043.47;;;25.28;100.00
39223;BME280;24936;46.328;11.026;2022-09-09T13:06:47;94038.69;;;25.35;100.00
39223;BME280;24936;46.328;11.026;2022-09-09T13:09:12;94028.38;;;24.73;100.00
39223;BME280;24936;46.328;11.026;2022-09-09T13:11:40;94034.16;;;24.81;100.00
39223;BME280;24936;46.328;11.026;2022-09-09T13:14:29;94027.13;;;25.19;100.00
39223;BME280;24936;46.328;11.026;2022-09-09T13:17:00;94025.09;;;25.14;100.00
39223;BME280;24936;46.328;11.026;2022-09-09T13:19:35;94033.19;;;25.12;100.00
39223;BME280;24936;46.328;11.026;2022-09-09T13:22:39;94022.53;;;25.50;100.00
39223;BME280;24936;46.328;11.026;2022-09-09T13:25:13;94014.28;;;25.27;100.00
39223;BME280;24936;46.328;11.026;2022-09-09T13:30:32;94013.53;;;24.71;100.00
39223;BME280;24936;46.328;11.026;2022-09-09T13:35:29;94011.19;;;22.21;100.00
39223;BME280;24936;46.328;11.026;2022-09-09T13:37:55;94005.94;;;23.13;100.00
39223;BME280;24936;46.328;11.026;2022-09-09T13:40:23;93996.13;;;24.20;100.00
39223;BME280;24936;46.328;11.026;2022-09-09T13:42:55;93990.38;;;24.46;100.00
39223;BME280;24936;46.328;11.026;2022-09-09T13:45:23;93999.38;;;24.24;100.00
39223;BME280;24936;46.328;11.026;2022-09-09T13:47:53;94001.69;;;24.76;100.00
39223;BME280;24936;46.328;11.026;2022-09-09T13:50:28;93998.44;;;24.49;100.00
39223;BME280;24936;46.328;11.026;2022-09-09T13:52:55;93996.59;;;24.13;100.00
39223;BME280;24936;46.328;11.026;2022-09-09T13:55:27;94002.84;;;22.73;100.00
39223;BME280;24936;46.328;11.026;2022-09-09T13:57:53;93998.75;;;23.75;100.00
39223;BME280;24936;46.328;11.026;2022-09-09T14:00:20;93993.84;;;24.13;100.00
39223;BME280;24936;46.328;11.026;2022-09-09T14:02:46;93984.06;;;24.28;100.00
39223;BME280;24936;46.328;11.026;2022-09-09T14:05:12;93990.03;;;23.45;100.00
39223;BME280;24936;46.328;11.026;2022-09-09T14:07:38;93994.28;;;23.40;100.00
39223;BME280;24936;46.328;11.026;2022-09-09T14:10:06;93983.31;;;23.57;100.00
39223;BME280;24936;46.328;11.026;2022-09-09T14:12:32;93985.38;;;22.82;100.00
39223;BME280;24936;46.328;11.026;2022-09-09T14:14:58;93982.69;;;23.30;100.00
39223;BME280;24936;46.328;11.026;2022-09-09T14:17:25;93979.56;;;23.60;100.00
39223;BME280;24936;46.328;11.026;2022-09-09T14:19:52;93978.69;;;23.91;100.00
39223;BME280;24936;46.328;11.026;2022-09-09T14:22:17;93974.91;;;23.77;100.00
39223;BME280;24936;46.328;11.026;2022-09-09T14:24:43;93985.09;;;22.80;100.00
39223;BME280;24936;46.328;11.026;2022-09-09T14:27:08;93981.97;;;21.83;100.00
39223;BME280;24936;46.328;11.026;2022-09-09T14:29:34;93981.63;;;22.01;100.00
39223;BME280;24936;46.328;11.026;2022-09-09T14:31:59;93978.34;;;22.18;100.00
39223;BME280;24936;46.328;11.026;2022-09-09T14:34:26;93984.41;;;22.53;100.00
39223;BME280;24936;46.328;11.026;2022-09-09T14:36:51;93988.34;;;21.95;100.00
39223;BME280;24936;46.328;11.026;2022-09-09T14:39:17;93987.75;;;21.44;100.00
39223;BME280;24936;46.328;11.026;2022-09-09T14:41:42;93994.28;;;20.91;100.00
39223;BME280;24936;46.328;11.026;2022-09-09T14:44:08;93997.91;;;20.53;100.00
39223;BME280;24936;46.328;11.026;2022-09-09T14:46:33;93990.97;;;20.13;100.00
39223;BME280;24936;46.328;11.026;2022-09-09T14:48:59;93987.25;;;19.86;100.00
39223;BME280;24936;46.328;11.026;2022-09-09T14:51:25;93996.88;;;19.67;100.00
39223;BME280;24936;46.328;11.026;2022-09-09T14:53:57;93991.09;;;19.41;100.00
39223;BME280;24936;46.328;11.026;2022-09-09T14:56:24;94005.31;;;19.30;100.00
39223;BME280;24936;46.328;11.026;2022-09-09T14:58:53;94003.31;;;19.16;100.00
39223;BME280;24936;46.328;11.026;2022-09-09T15:01:20;94010.56;;;18.95;100.00
39223;BME280;24936;46.328;11.026;2022-09-09T15:03:51;94007.13;;;18.76;100.00
39223;BME280;24936;46.328;11.026;2022-09-09T15:06:17;94019.16;;;18.69;100.00
39223;BME280;24936;46.328;11.026;2022-09-09T15:08:43;94013.97;;;18.81;100.00
39223;BME280;24936;46.328;11.026;2022-09-09T15:11:10;94022.69;;;18.70;100.00
39223;BME280;24936;46.328;11.026;2022-09-09T15:13:38;94015.59;;;18.96;100.00
39223;BME280;24936;46.328;11.026;2022-09-09T15:16:12;94025.88;;;18.78;100.00
39223;BME280;24936;46.328;11.026;2022-09-09T15:18:38;94027.59;;;18.57;100.00
39223;BME280;24936;46.328;11.026;2022-09-09T15:21:10;94025.63;;;18.48;100.00
39223;BME280;24936;46.328;11.026;2022-09-09T15:23:36;94029.00;;;18.34;100.00
39223;BME280;24936;46.328;11.026;2022-09-09T15:26:03;94033.88;;;18.39;100.00